createdAt,value
2022-09-26T00:01:46.868Z,6.03
2022-09-26T00:04:23.669Z,8.57
2022-09-26T00:06:56.189Z,5.15
2022-09-26T00:09:27.000Z,9.82
2022-09-26T00:11:55.642Z,6.20
2022-09-26T00:14:28.093Z,7.97
2022-09-26T00:16:56.821Z,6.82
2022-09-26T00:19:25.478Z,5.75
2022-09-26T00:21:55.078Z,6.22
2022-09-26T00:24:23.585Z,7.22
2022-09-26T00:26:51.792Z,9.93
2022-09-26T00:29:20.003Z,8.60
2022-09-26T00:31:49.053Z,6.40
2022-09-26T00:34:20.121Z,5.93
2022-09-26T00:36:50.142Z,7.47
2022-09-26T00:39:19.771Z,8.05
2022-09-26T00:41:48.013Z,6.45
2022-09-26T00:44:47.566Z,6.95
2022-09-26T00:47:41.726Z,8.35
2022-09-26T00:50:19.501Z,8.48
2022-09-26T00:52:53.831Z,8.20
2022-09-26T00:55:30.180Z,13.35
2022-09-26T00:58:04.405Z,8.25
2022-09-26T01:00:34.152Z,12.98
2022-09-26T01:03:03.208Z,8.98
2022-09-26T01:05:33.828Z,11.18
2022-09-26T01:08:04.058Z,7.00
2022-09-26T01:10:34.367Z,10.88
2022-09-26T01:13:03.903Z,8.48
2022-09-26T01:15:32.545Z,9.57
2022-09-26T01:18:00.810Z,11.10
2022-09-26T01:20:36.299Z,9.73
2022-09-26T01:23:57.965Z,8.13
2022-09-26T01:27:04.325Z,10.73
2022-09-26T01:30:00.864Z,8.68
2022-09-26T01:33:13.527Z,8.23
2022-09-26T01:36:00.002Z,10.60
2022-09-26T01:38:40.819Z,7.00
2022-09-26T01:43:58.310Z,9.55
2022-09-26T01:46:36.374Z,5.55
2022-09-26T01:49:14.955Z,11.48
2022-09-26T01:51:50.451Z,9.60
2022-09-26T01:54:24.615Z,14.85
2022-09-26T01:56:55.740Z,12.20
2022-09-26T01:59:28.442Z,10.88
2022-09-26T02:02:05.694Z,11.02
2022-09-26T02:04:38.425Z,6.32
2022-09-26T02:07:13.364Z,6.75
2022-09-26T02:09:46.718Z,9.50
2022-09-26T02:12:21.102Z,11.35
2022-09-26T02:14:52.417Z,8.60
2022-09-26T02:17:28.016Z,12.70
2022-09-26T02:20:00.156Z,4.55
2022-09-26T02:22:34.864Z,8.02
2022-09-26T02:25:04.951Z,10.75
2022-09-26T02:27:33.363Z,6.32
2022-09-26T02:30:01.770Z,9.90
2022-09-26T02:32:33.969Z,11.10
2022-09-26T02:35:34.639Z,7.53
2022-09-26T02:38:05.911Z,8.60
2022-09-26T02:40:48.866Z,5.40
2022-09-26T02:43:45.638Z,5.85
2022-09-26T02:46:39.754Z,8.05
2022-09-26T02:49:27.300Z,5.45
2022-09-26T02:52:17.928Z,8.10
2022-09-26T02:55:01.048Z,8.93
2022-09-26T02:57:43.112Z,6.18
2022-09-26T03:00:17.903Z,6.28
2022-09-26T03:02:52.276Z,8.10
2022-09-26T03:05:24.989Z,8.82
2022-09-26T03:08:00.696Z,5.93
2022-09-26T03:10:31.782Z,9.70
2022-09-26T03:13:06.415Z,11.48
2022-09-26T03:15:36.763Z,10.55
2022-09-26T03:18:13.051Z,7.50
2022-09-26T03:20:43.051Z,8.13
2022-09-26T03:23:11.351Z,4.65
2022-09-26T03:25:39.730Z,4.53
2022-09-26T03:28:13.082Z,6.60
2022-09-26T03:30:41.683Z,7.50
2022-09-26T03:33:28.647Z,5.90
2022-09-26T03:36:00.181Z,7.43
2022-09-26T03:38:28.816Z,7.78
2022-09-26T03:41:19.923Z,7.95
2022-09-26T03:44:04.398Z,4.90
2022-09-26T03:46:52.929Z,11.95
2022-09-26T03:49:21.261Z,6.72
2022-09-26T03:51:50.877Z,8.32
2022-09-26T03:54:19.506Z,11.15
2022-09-26T03:56:48.916Z,8.68
2022-09-26T03:59:18.308Z,11.35
2022-09-26T04:01:48.968Z,9.13
2022-09-26T04:04:17.219Z,10.02
2022-09-26T04:06:46.412Z,11.25
2022-09-26T04:09:17.804Z,10.55
2022-09-26T04:11:52.337Z,10.57
2022-09-26T04:14:22.155Z,14.30
2022-09-26T04:16:55.700Z,12.77
2022-09-26T04:19:38.004Z,11.45
2022-09-26T04:22:08.094Z,10.27
2022-09-26T04:24:38.076Z,11.77
2022-09-26T04:29:37.221Z,8.73
2022-09-26T04:32:12.363Z,9.65
2022-09-26T04:35:07.798Z,8.75
2022-09-26T04:37:37.130Z,11.57
2022-09-26T04:40:09.404Z,14.02
2022-09-26T04:42:41.524Z,10.05
2022-09-26T04:45:11.508Z,13.20
2022-09-26T04:47:40.059Z,12.50
2022-09-26T04:50:26.639Z,12.38
2022-09-26T04:53:07.184Z,10.05
2022-09-26T04:55:45.914Z,8.65
2022-09-26T04:58:16.515Z,11.57
2022-09-26T05:00:47.945Z,10.70
2022-09-26T05:03:19.308Z,12.27
2022-09-26T05:05:48.395Z,15.35
2022-09-26T05:08:17.635Z,12.68
2022-09-26T05:10:54.970Z,14.02
2022-09-26T05:13:23.434Z,9.18
2022-09-26T05:15:55.189Z,10.48
2022-09-26T05:18:24.405Z,9.05
2022-09-26T05:20:53.571Z,14.45
2022-09-26T05:23:44.405Z,9.10
2022-09-26T05:26:21.351Z,9.43
2022-09-26T05:28:53.051Z,10.45
2022-09-26T05:31:28.969Z,9.52
2022-09-26T05:33:57.528Z,6.85
2022-09-26T05:36:26.471Z,6.90
2022-09-26T05:38:55.209Z,7.90
2022-09-26T05:41:23.916Z,10.77
2022-09-26T05:43:52.926Z,8.98
2022-09-26T05:46:21.453Z,8.25
2022-09-26T05:48:52.975Z,6.97
2022-09-26T05:53:51.892Z,9.00
2022-09-26T05:56:24.619Z,7.60
2022-09-26T05:59:11.435Z,9.98
2022-09-26T06:01:58.613Z,10.20
2022-09-26T06:04:59.445Z,11.52
2022-09-26T06:07:50.665Z,13.10
2022-09-26T06:10:35.120Z,9.68
2022-09-26T06:13:05.243Z,12.40
2022-09-26T06:15:39.975Z,11.25
2022-09-26T06:18:08.273Z,11.80
2022-09-26T06:20:36.559Z,12.32
2022-09-26T06:23:05.699Z,14.52
2022-09-26T06:25:35.709Z,14.23
2022-09-26T06:28:06.650Z,12.40
2022-09-26T06:30:36.033Z,12.02
2022-09-26T06:33:13.577Z,9.32
2022-09-26T06:36:02.080Z,11.55
2022-09-26T06:38:38.833Z,9.07
2022-09-26T06:41:16.654Z,14.82
2022-09-26T06:43:46.601Z,9.25
2022-09-26T06:46:32.680Z,12.65
2022-09-26T06:49:13.764Z,9.55
2022-09-26T06:51:50.355Z,9.48
2022-09-26T06:54:19.636Z,10.93
2022-09-26T06:56:48.411Z,9.93
2022-09-26T06:59:19.268Z,9.30
2022-09-26T07:01:54.901Z,11.13
2022-09-26T07:04:55.402Z,10.93
2022-09-26T07:07:31.433Z,9.45
2022-09-26T07:09:59.901Z,9.50
2022-09-26T07:12:44.059Z,14.63
2022-09-26T07:15:17.188Z,12.70
2022-09-26T07:17:48.046Z,12.43
2022-09-26T07:20:40.008Z,13.25
2022-09-26T07:23:16.523Z,11.38
2022-09-26T07:25:47.163Z,9.75
2022-09-26T07:28:15.997Z,5.25
2022-09-26T07:30:57.063Z,8.18
2022-09-26T07:33:54.397Z,9.50
2022-09-26T07:36:23.352Z,9.73
2022-09-26T07:38:55.408Z,6.88
2022-09-26T07:41:24.024Z,15.93
2022-09-26T07:46:59.733Z,7.03
2022-09-26T07:49:45.808Z,8.10
2022-09-26T07:52:32.706Z,11.40
2022-09-26T07:55:29.308Z,12.48
2022-09-26T07:58:12.432Z,12.35
2022-09-26T08:00:59.145Z,9.65
2022-09-26T08:03:49.377Z,6.70
2022-09-26T08:06:27.583Z,16.52
2022-09-26T08:08:58.151Z,13.48
2022-09-26T08:11:45.148Z,10.95
2022-09-26T08:14:40.536Z,14.55
2022-09-26T08:17:22.433Z,11.75
2022-09-26T08:19:52.081Z,13.70
2022-09-26T08:22:20.345Z,12.77
2022-09-26T08:24:53.306Z,10.30
2022-09-26T08:27:44.989Z,11.68
2022-09-26T08:30:14.937Z,12.90
2022-09-26T08:32:44.431Z,15.10
2022-09-26T08:35:14.903Z,24.88
2022-09-26T08:38:10.417Z,12.07
2022-09-26T08:40:53.242Z,11.90
2022-09-26T08:43:57.743Z,11.07
2022-09-26T08:47:02.301Z,13.50
2022-09-26T08:49:50.697Z,10.20
2022-09-26T08:52:31.792Z,12.18
2022-09-26T08:55:05.884Z,13.80
2022-09-26T08:57:40.378Z,15.00
2022-09-26T09:00:20.086Z,10.05
2022-09-26T09:03:07.153Z,9.32
2022-09-26T09:05:40.979Z,9.38
2022-09-26T09:08:17.402Z,15.85
2022-09-26T09:11:13.157Z,8.95
2022-09-26T09:13:58.762Z,9.50
2022-09-26T09:17:16.248Z,11.80
2022-09-26T09:20:05.205Z,12.13
2022-09-26T09:23:18.193Z,10.55
2022-09-26T09:29:38.918Z,8.75
2022-09-26T09:32:33.250Z,10.13
2022-09-26T09:35:17.071Z,12.00
2022-09-26T09:38:30.433Z,10.63
2022-09-26T09:41:26.613Z,16.98
2022-09-26T09:43:57.286Z,11.85
2022-09-26T09:46:29.461Z,7.03
2022-09-26T09:49:16.046Z,9.82
2022-09-26T09:52:01.078Z,7.60
2022-09-26T09:54:59.529Z,9.50
2022-09-26T09:57:44.830Z,7.35
2022-09-26T10:00:17.263Z,7.63
2022-09-26T10:03:02.766Z,7.95
2022-09-26T10:05:44.102Z,11.00
2022-09-26T10:08:22.595Z,10.02
2022-09-26T10:11:23.159Z,9.82
2022-09-26T10:14:03.093Z,7.72
2022-09-26T10:16:37.434Z,9.23
2022-09-26T10:19:10.787Z,9.43
2022-09-26T10:21:43.273Z,7.47
2022-09-26T10:24:25.403Z,5.97
2022-09-26T10:27:16.670Z,6.35
2022-09-26T10:29:47.374Z,6.40
2022-09-26T10:32:18.985Z,5.55
2022-09-26T10:35:07.744Z,5.65
2022-09-26T10:37:39.850Z,8.68
2022-09-26T10:40:46.189Z,6.13
2022-09-26T10:43:38.914Z,5.05
2022-09-26T10:46:17.624Z,4.93
2022-09-26T10:49:17.088Z,5.32
2022-09-26T10:52:23.660Z,5.50
2022-09-26T10:54:59.185Z,5.38
2022-09-26T10:57:34.540Z,4.38
2022-09-26T11:00:08.658Z,4.78
2022-09-26T11:02:37.657Z,4.30
2022-09-26T11:05:26.046Z,5.57
2022-09-26T11:08:29.513Z,5.80
2022-09-26T11:11:22.527Z,5.32
2022-09-26T11:14:05.259Z,5.05
2022-09-26T11:16:53.883Z,5.40
2022-09-26T11:19:36.273Z,4.10
2022-09-26T11:22:14.274Z,3.33
2022-09-26T11:24:49.241Z,3.42
2022-09-26T11:27:27.219Z,3.85
2022-09-26T11:30:03.251Z,3.45
2022-09-26T11:32:40.853Z,3.33
2022-09-26T11:35:49.812Z,3.92
2022-09-26T11:38:39.419Z,3.67
2022-09-26T11:41:39.359Z,4.70
2022-09-26T11:44:49.569Z,4.45
2022-09-26T11:47:58.905Z,4.72
2022-09-26T11:50:48.401Z,4.18
2022-09-26T11:53:51.145Z,6.60
2022-09-26T11:56:40.870Z,4.95
2022-09-26T11:59:31.554Z,4.90
2022-09-26T12:02:33.796Z,5.43
2022-09-26T12:05:27.067Z,6.85
2022-09-26T12:08:13.846Z,8.05
2022-09-26T12:10:53.994Z,4.75
2022-09-26T12:13:35.326Z,6.00
2022-09-26T12:16:14.366Z,5.57
2022-09-26T12:18:55.673Z,8.05
2022-09-26T12:21:40.687Z,6.65
2022-09-26T12:24:18.335Z,10.25
2022-09-26T12:26:55.183Z,10.63
2022-09-26T12:29:37.314Z,9.63
2022-09-26T12:32:26.709Z,7.38
2022-09-26T12:35:09.279Z,8.63
2022-09-26T12:37:58.812Z,6.90
2022-09-26T12:40:36.812Z,8.02
2022-09-26T12:43:26.072Z,5.32
2022-09-26T12:46:18.242Z,9.65
2022-09-26T12:49:24.278Z,10.57
2022-09-26T12:51:55.932Z,9.93
2022-09-26T12:55:01.425Z,7.72
2022-09-26T12:57:40.358Z,10.45
2022-09-26T13:00:17.191Z,10.68
2022-09-26T13:03:25.173Z,14.07
2022-09-26T13:06:27.374Z,12.48
2022-09-26T13:09:09.765Z,21.98
2022-09-26T13:11:48.996Z,21.45
2022-09-26T13:14:57.269Z,18.80
2022-09-26T13:17:30.570Z,18.35
2022-09-26T13:20:04.552Z,13.00
2022-09-26T13:22:42.405Z,13.60
2022-09-26T13:25:19.013Z,8.73
2022-09-26T13:27:55.630Z,11.52
2022-09-26T13:30:28.742Z,16.05
2022-09-26T13:33:05.657Z,15.65
2022-09-26T13:35:39.647Z,16.90
2022-09-26T13:38:35.113Z,16.77
2022-09-26T13:41:25.394Z,18.83
2022-09-26T13:44:08.855Z,20.33
2022-09-26T13:46:53.506Z,17.38
2022-09-26T13:49:50.880Z,21.50
2022-09-26T13:52:42.837Z,20.60
2022-09-26T13:55:18.382Z,27.38
2022-09-26T13:57:52.316Z,25.90
2022-09-26T14:00:49.085Z,26.85
2022-09-26T14:03:41.530Z,29.45
2022-09-26T14:06:31.942Z,30.20
2022-09-26T14:09:28.578Z,29.40
2022-09-26T14:12:35.681Z,26.95
2022-09-26T14:15:24.190Z,23.73
2022-09-26T14:18:13.728Z,30.45
2022-09-26T14:20:59.888Z,27.40
2022-09-26T14:23:50.642Z,26.65
2022-09-26T14:28:56.033Z,26.17
2022-09-26T14:32:01.304Z,25.35
2022-09-26T14:34:35.391Z,34.03
2022-09-26T14:37:24.451Z,30.38
2022-09-26T14:40:02.995Z,25.85
2022-09-26T14:42:36.380Z,27.65
2022-09-26T14:45:08.863Z,25.67
2022-09-26T14:47:44.139Z,23.13
2022-09-26T14:50:20.479Z,25.90
2022-09-26T14:52:54.167Z,26.63
2022-09-26T14:55:22.523Z,19.13
2022-09-26T14:57:50.784Z,19.73
2022-09-26T15:00:40.613Z,17.48
2022-09-26T15:03:16.206Z,13.20
2022-09-26T15:05:46.712Z,17.67
2022-09-26T15:08:26.707Z,17.73
2022-09-26T15:10:57.737Z,12.52
2022-09-26T15:13:34.031Z,12.75
2022-09-26T15:16:25.798Z,25.98
2022-09-26T15:18:56.967Z,21.58
2022-09-26T15:21:32.970Z,15.65
2022-09-26T15:24:04.942Z,12.73
2022-09-26T15:26:36.447Z,14.07
2022-09-26T15:29:07.993Z,12.00
2022-09-26T15:31:41.869Z,16.90
2022-09-26T15:34:17.440Z,19.20
2022-09-26T15:36:54.377Z,22.05
2022-09-26T15:39:43.514Z,16.13
2022-09-26T15:42:43.993Z,20.50
2022-09-26T15:45:34.473Z,18.17
2022-09-26T15:48:05.806Z,18.55
2022-09-26T15:50:41.415Z,15.25
2022-09-26T15:53:24.193Z,17.33
2022-09-26T15:55:57.512Z,16.02
2022-09-26T15:58:38.754Z,14.50
2022-09-26T16:01:08.841Z,20.80
2022-09-26T16:03:55.131Z,15.45
2022-09-26T16:06:30.459Z,17.40
2022-09-26T16:09:09.413Z,17.45
2022-09-26T16:11:47.582Z,16.38
2022-09-26T16:14:30.058Z,11.68
2022-09-26T16:17:13.946Z,12.15
2022-09-26T16:19:48.679Z,14.45
2022-09-26T16:22:36.646Z,15.52
2022-09-26T16:25:29.923Z,12.98
2022-09-26T16:28:41.922Z,15.43
2022-09-26T16:31:27.126Z,15.73
2022-09-26T16:33:58.394Z,14.85
2022-09-26T16:36:29.976Z,10.60
2022-09-26T16:39:04.616Z,11.40
2022-09-26T16:42:00.464Z,12.43
2022-09-26T16:44:35.300Z,9.52
2022-09-26T16:47:09.101Z,17.80
2022-09-26T16:49:48.458Z,15.52
2022-09-26T16:52:31.060Z,11.77
2022-09-26T16:55:01.475Z,16.08
2022-09-26T16:57:35.361Z,10.82
2022-09-26T17:00:26.482Z,13.38
2022-09-26T17:02:55.032Z,15.07
2022-09-26T17:05:23.482Z,14.18
2022-09-26T17:07:51.818Z,14.27
2022-09-26T17:10:22.488Z,13.95
2022-09-26T17:15:28.623Z,13.68
2022-09-26T17:17:57.810Z,12.77
2022-09-26T17:20:26.929Z,19.90
2022-09-26T17:22:55.782Z,12.68
2022-09-26T17:25:25.886Z,12.98
2022-09-26T17:28:01.675Z,15.38
2022-09-26T17:30:30.207Z,10.52
2022-09-26T17:32:59.011Z,11.50
2022-09-26T17:35:29.997Z,9.05
2022-09-26T17:37:58.634Z,14.80
2022-09-26T17:40:30.680Z,12.13
2022-09-26T17:43:01.978Z,13.80
2022-09-26T17:45:34.437Z,12.93
2022-09-26T17:48:06.487Z,8.80
2022-09-26T17:50:35.844Z,12.75
2022-09-26T17:53:04.318Z,9.02
2022-09-26T17:55:33.532Z,10.00
2022-09-26T17:58:05.180Z,9.38
2022-09-26T18:00:38.860Z,11.45
2022-09-26T18:03:18.210Z,12.20
2022-09-26T18:05:47.394Z,11.48
2022-09-26T18:08:22.504Z,13.90
2022-09-26T18:10:54.979Z,15.82
2022-09-26T18:13:31.396Z,8.65
2022-09-26T18:16:00.121Z,11.65
2022-09-26T18:18:31.172Z,10.85
2022-09-26T18:21:03.857Z,13.77
2022-09-26T18:23:42.739Z,13.40
2022-09-26T18:26:23.027Z,10.70
2022-09-26T18:28:52.782Z,11.70
2022-09-26T18:31:29.631Z,13.10
2022-09-26T18:34:03.064Z,13.85
2022-09-26T18:36:34.078Z,11.88
2022-09-26T18:39:02.521Z,13.43
2022-09-26T18:41:31.087Z,11.70
2022-09-26T18:44:02.943Z,14.00
2022-09-26T18:46:31.671Z,7.63
2022-09-26T18:49:06.159Z,13.60
2022-09-26T18:51:34.935Z,10.65
2022-09-26T18:54:07.191Z,14.00
2022-09-26T18:56:55.221Z,10.85
2022-09-26T18:59:28.873Z,12.10
2022-09-26T19:01:59.556Z,12.55
2022-09-26T19:04:28.725Z,14.25
2022-09-26T19:07:01.282Z,8.80
2022-09-26T19:09:34.393Z,14.15
2022-09-26T19:12:03.635Z,14.38
2022-09-26T19:14:33.593Z,12.68
2022-09-26T19:17:01.982Z,9.32
2022-09-26T19:19:32.516Z,13.63
2022-09-26T19:22:08.049Z,14.23
2022-09-26T19:24:41.769Z,12.43
2022-09-26T19:27:16.400Z,8.82
2022-09-26T19:29:51.188Z,12.88
2022-09-26T19:32:23.322Z,8.40
2022-09-26T19:34:56.791Z,8.93
2022-09-26T19:37:25.051Z,9.50
2022-09-26T19:39:53.319Z,10.00
2022-09-26T19:42:21.755Z,7.38
2022-09-26T19:44:51.374Z,5.93
2022-09-26T19:47:22.318Z,7.93
2022-09-26T19:49:52.969Z,8.43
2022-09-26T19:52:23.008Z,10.90
2022-09-26T19:54:51.573Z,7.82
2022-09-26T19:57:21.905Z,9.68
2022-09-26T19:59:52.127Z,10.77
2022-09-26T20:02:22.830Z,10.82
2022-09-26T20:07:21.222Z,15.70
2022-09-26T20:09:49.468Z,10.27
2022-09-26T20:12:17.858Z,13.55
2022-09-26T20:14:46.031Z,14.75
2022-09-26T20:17:22.093Z,14.65
2022-09-26T20:19:53.144Z,11.00
2022-09-26T20:22:25.343Z,14.57
2022-09-26T20:24:55.610Z,8.68
2022-09-26T20:27:27.888Z,14.70
2022-09-26T20:30:14.030Z,12.15
2022-09-26T20:32:43.922Z,13.07
2022-09-26T20:35:15.359Z,13.83
2022-09-26T20:37:44.816Z,11.93
2022-09-26T20:40:19.380Z,17.67
2022-09-26T20:42:52.162Z,16.27
2022-09-26T20:45:26.909Z,13.48
2022-09-26T20:47:57.533Z,6.28
2022-09-26T20:50:28.510Z,11.43
2022-09-26T20:52:59.892Z,12.73
2022-09-26T20:55:28.130Z,17.08
2022-09-26T20:57:56.879Z,12.48
2022-09-26T21:00:25.088Z,10.35
2022-09-26T21:02:57.146Z,10.32
2022-09-26T21:05:28.020Z,14.45
2022-09-26T21:10:28.226Z,12.32
2022-09-26T21:12:57.259Z,10.60
2022-09-26T21:15:28.100Z,9.30
2022-09-26T21:17:58.263Z,11.32
2022-09-26T21:20:29.564Z,9.50
2022-09-26T21:23:19.208Z,8.07
2022-09-26T21:25:47.851Z,9.55
2022-09-26T21:28:27.411Z,10.95
2022-09-26T21:30:58.551Z,7.97
2022-09-26T21:33:28.365Z,12.20
2022-09-26T21:35:56.894Z,11.30
2022-09-26T21:38:27.295Z,6.60
2022-09-26T21:40:59.519Z,13.00
2022-09-26T21:43:32.222Z,12.45
2022-09-26T21:46:00.514Z,14.23
2022-09-26T21:48:30.291Z,14.02
2022-09-26T21:51:00.184Z,13.20
2022-09-26T21:53:36.498Z,16.42
2022-09-26T21:56:10.645Z,10.98
2022-09-26T21:58:41.888Z,8.27
2022-09-26T22:01:10.384Z,12.60
2022-09-26T22:03:39.929Z,12.43
2022-09-26T22:06:10.270Z,6.97
2022-09-26T22:08:39.456Z,5.40
2022-09-26T22:11:08.975Z,8.43
2022-09-26T22:13:38.342Z,6.18
2022-09-26T22:16:07.809Z,9.63
2022-09-26T22:18:37.192Z,6.95
2022-09-26T22:21:07.897Z,9.60
2022-09-26T22:26:05.971Z,7.57
2022-09-26T22:28:34.707Z,9.60
2022-09-26T22:31:04.827Z,10.00
2022-09-26T22:33:33.861Z,8.63
2022-09-26T22:36:02.774Z,5.72
2022-09-26T22:38:33.712Z,14.55
2022-09-26T22:41:05.017Z,8.88
2022-09-26T22:43:34.890Z,8.57
2022-09-26T22:46:04.919Z,11.37
2022-09-26T22:48:34.134Z,11.85
2022-09-26T22:51:02.984Z,9.82
2022-09-26T22:53:35.083Z,10.07
2022-09-26T22:56:05.231Z,11.48
2022-09-26T22:58:36.584Z,9.45
2022-09-26T23:01:06.896Z,10.35
2022-09-26T23:03:35.690Z,15.18
2022-09-26T23:06:04.429Z,13.00
2022-09-26T23:08:35.923Z,19.02
2022-09-26T23:11:05.481Z,16.35
2022-09-26T23:13:35.156Z,15.00
2022-09-26T23:16:07.307Z,14.68
2022-09-26T23:18:36.532Z,10.23
2022-09-26T23:21:09.450Z,11.38
2022-09-26T23:23:39.724Z,17.45
2022-09-26T23:26:08.657Z,11.02
2022-09-26T23:28:36.936Z,11.40
2022-09-26T23:31:07.526Z,11.77
2022-09-26T23:33:36.538Z,13.02
2022-09-26T23:36:05.589Z,14.35
2022-09-26T23:38:34.956Z,12.32
2022-09-26T23:41:04.705Z,15.77
2022-09-26T23:43:32.962Z,15.10
2022-09-26T23:46:01.712Z,15.90
2022-09-26T23:48:30.274Z,19.40
2022-09-26T23:50:58.471Z,17.65
2022-09-26T23:53:27.024Z,13.82
2022-09-26T23:56:05.462Z,15.63
2022-09-26T23:58:34.167Z,16.83
